Terminal Aerodrome Forecast
Issued by NWS Twin Cities, MN

Home | Current Version | Previous Version | Graphics & Text | Print | Product List | Glossary On
Versions: 1 2 3 4 5 6 7 8 9 10 11 12 13 14 15 16 17 18
000
FTUS43 KMPX 190200 AAA
TAFSTC
TAF AMD
KSTC 190245Z 1903/1924 10009KT P6SM SCT060 BKN100
     FM190900 15012G21KT P6SM VCSH OVC060
      TEMPO 1910/1914 5SM -SHRA BKN035 OVC050
     FM191700 20015G22KT P6SM SCT035 BKN050
     FM192200 23013KT P6SM SCT100=

USA.gov is the U.S. government's official web portal to all federal, state and local government web resources and services.